sensor_id;sensor_type;location;lat;lon;timestamp;temperature;humidity
16929;DHT22;8581;47.334;11.190;2023-09-30T00:02:07;14.90;99.90
16929;DHT22;8581;47.334;11.190;2023-09-30T00:04:39;14.60;99.90
16929;DHT22;8581;47.334;11.190;2023-09-30T00:07:10;14.50;99.90
16929;DHT22;8581;47.334;11.190;2023-09-30T00:09:41;14.40;99.90
16929;DHT22;8581;47.334;11.190;2023-09-30T00:12:13;14.20;99.90
16929;DHT22;8581;47.334;11.190;2023-09-30T00:14:45;14.30;99.90
16929;DHT22;8581;47.334;11.190;2023-09-30T00:17:16;14.40;99.90
16929;DHT22;8581;47.334;11.190;2023-09-30T00:19:48;14.50;99.90
16929;DHT22;8581;47.334;11.190;2023-09-30T00:22:19;14.70;99.90
16929;DHT22;8581;47.334;11.190;2023-09-30T00:24:51;14.80;99.90
16929;DHT22;8581;47.334;11.190;2023-09-30T00:27:23;14.70;99.90
16929;DHT22;8581;47.334;11.190;2023-09-30T00:29:54;14.50;99.90
16929;DHT22;8581;47.334;11.190;2023-09-30T00:32:26;14.50;99.90
16929;DHT22;8581;47.334;11.190;2023-09-30T00:34:57;14.50;99.90
16929;DHT22;8581;47.334;11.190;2023-09-30T00:37:29;14.50;99.90
16929;DHT22;8581;47.334;11.190;2023-09-30T00:40:01;14.40;99.90
16929;DHT22;8581;47.334;11.190;2023-09-30T00:42:32;14.30;99.90
16929;DHT22;8581;47.334;11.190;2023-09-30T00:45:05;14.20;99.90
16929;DHT22;8581;47.334;11.190;2023-09-30T00:47:37;14.20;99.90
16929;DHT22;8581;47.334;11.190;2023-09-30T00:50:09;14.30;99.90
16929;DHT22;8581;47.334;11.190;2023-09-30T00:52:41;14.20;99.90
16929;DHT22;8581;47.334;11.190;2023-09-30T00:55:12;14.30;99.90
16929;DHT22;8581;47.334;11.190;2023-09-30T00:57:44;14.30;99.90
16929;DHT22;8581;47.334;11.190;2023-09-30T01:00:15;14.20;99.90
16929;DHT22;8581;47.334;11.190;2023-09-30T01:02:47;14.30;99.90
16929;DHT22;8581;47.334;11.190;2023-09-30T01:05:19;14.30;99.90
16929;DHT22;8581;47.334;11.190;2023-09-30T01:07:50;14.20;99.90
16929;DHT22;8581;47.334;11.190;2023-09-30T01:10:22;14.10;99.90
16929;DHT22;8581;47.334;11.190;2023-09-30T01:12:53;14.10;99.90
16929;DHT22;8581;47.334;11.190;2023-09-30T01:15:25;14.10;99.90
16929;DHT22;8581;47.334;11.190;2023-09-30T01:17:57;14.30;99.90
16929;DHT22;8581;47.334;11.190;2023-09-30T01:20:28;14.40;99.90
16929;DHT22;8581;47.334;11.190;2023-09-30T01:23:00;14.50;99.90
16929;DHT22;8581;47.334;11.190;2023-09-30T01:25:31;14.40;99.90
16929;DHT22;8581;47.334;11.190;2023-09-30T01:28:07;14.50;99.90
16929;DHT22;8581;47.334;11.190;2023-09-30T01:30:35;14.50;99.90
16929;DHT22;8581;47.334;11.190;2023-09-30T01:33:07;14.40;99.90
16929;DHT22;8581;47.334;11.190;2023-09-30T01:35:38;14.20;99.90
16929;DHT22;8581;47.334;11.190;2023-09-30T01:38:10;14.30;99.90
16929;DHT22;8581;47.334;11.190;2023-09-30T01:40:42;14.30;99.90
16929;DHT22;8581;47.334;11.190;2023-09-30T01:43:14;14.40;99.90
16929;DHT22;8581;47.334;11.190;2023-09-30T01:45:46;14.20;99.90
16929;DHT22;8581;47.334;11.190;2023-09-30T01:48:17;14.20;99.90
16929;DHT22;8581;47.334;11.190;2023-09-30T01:50:49;14.30;99.90
16929;DHT22;8581;47.334;11.190;2023-09-30T01:53:20;14.20;99.90
16929;DHT22;8581;47.334;11.190;2023-09-30T01:55:52;14.20;99.90
16929;DHT22;8581;47.334;11.190;2023-09-30T01:58:23;14.20;99.90
16929;DHT22;8581;47.334;11.190;2023-09-30T02:01:01;14.10;99.90
16929;DHT22;8581;47.334;11.190;2023-09-30T02:03:27;14.00;99.90
16929;DHT22;8581;47.334;11.190;2023-09-30T02:05:58;14.00;99.90
16929;DHT22;8581;47.334;11.190;2023-09-30T02:08:30;13.90;99.90
16929;DHT22;8581;47.334;11.190;2023-09-30T02:11:02;14.00;99.90
16929;DHT22;8581;47.334;11.190;2023-09-30T02:13:33;14.00;99.90
16929;DHT22;8581;47.334;11.190;2023-09-30T02:16:05;14.10;99.90
16929;DHT22;8581;47.334;11.190;2023-09-30T02:18:36;14.10;99.90
16929;DHT22;8581;47.334;11.190;2023-09-30T02:21:08;14.00;99.90
16929;DHT22;8581;47.334;11.190;2023-09-30T02:23:40;14.10;99.90
16929;DHT22;8581;47.334;11.190;2023-09-30T02:26:12;13.90;99.90
16929;DHT22;8581;47.334;11.190;2023-09-30T02:28:44;13.80;99.90
16929;DHT22;8581;47.334;11.190;2023-09-30T02:31:15;13.80;99.90
16929;DHT22;8581;47.334;11.190;2023-09-30T02:33:47;13.80;99.90
16929;DHT22;8581;47.334;11.190;2023-09-30T02:36:18;14.00;99.90
16929;DHT22;8581;47.334;11.190;2023-09-30T02:38:50;14.10;99.90
16929;DHT22;8581;47.334;11.190;2023-09-30T02:41:22;14.20;99.90
16929;DHT22;8581;47.334;11.190;2023-09-30T02:43:53;14.30;99.90
16929;DHT22;8581;47.334;11.190;2023-09-30T02:46:25;14.30;99.90
16929;DHT22;8581;47.334;11.190;2023-09-30T02:48:56;14.50;99.90
16929;DHT22;8581;47.334;11.190;2023-09-30T02:51:28;14.30;99.90
16929;DHT22;8581;47.334;11.190;2023-09-30T02:54:00;14.40;99.90
16929;DHT22;8581;47.334;11.190;2023-09-30T02:56:31;14.40;99.90
16929;DHT22;8581;47.334;11.190;2023-09-30T02:59:03;14.40;99.90
16929;DHT22;8581;47.334;11.190;2023-09-30T03:01:34;14.40;99.90
16929;DHT22;8581;47.334;11.190;2023-09-30T03:04:06;14.30;99.90
16929;DHT22;8581;47.334;11.190;2023-09-30T03:06:38;14.30;99.90
16929;DHT22;8581;47.334;11.190;2023-09-30T03:09:09;14.30;99.90
16929;DHT22;8581;47.334;11.190;2023-09-30T03:11:41;14.40;99.90
16929;DHT22;8581;47.334;11.190;2023-09-30T03:14:13;14.40;99.90
16929;DHT22;8581;47.334;11.190;2023-09-30T03:16:44;14.30;99.90
16929;DHT22;8581;47.334;11.190;2023-09-30T03:19:16;14.00;99.90
16929;DHT22;8581;47.334;11.190;2023-09-30T03:21:48;13.60;99.90
16929;DHT22;8581;47.334;11.190;2023-09-30T03:24:19;13.80;99.90
16929;DHT22;8581;47.334;11.190;2023-09-30T03:26:51;13.70;99.90
16929;DHT22;8581;47.334;11.190;2023-09-30T03:29:23;13.70;99.90
16929;DHT22;8581;47.334;11.190;2023-09-30T03:31:54;13.70;99.90
16929;DHT22;8581;47.334;11.190;2023-09-30T03:34:26;13.60;99.90
16929;DHT22;8581;47.334;11.190;2023-09-30T03:36:57;13.40;99.90
16929;DHT22;8581;47.334;11.190;2023-09-30T03:39:29;13.40;99.90
16929;DHT22;8581;47.334;11.190;2023-09-30T03:42:01;13.30;99.90
16929;DHT22;8581;47.334;11.190;2023-09-30T03:44:33;13.40;99.90
16929;DHT22;8581;47.334;11.190;2023-09-30T03:47:04;13.40;99.90
16929;DHT22;8581;47.334;11.190;2023-09-30T03:49:36;13.30;99.90
16929;DHT22;8581;47.334;11.190;2023-09-30T03:52:08;13.30;99.90
16929;DHT22;8581;47.334;11.190;2023-09-30T03:54:39;13.30;99.90
16929;DHT22;8581;47.334;11.190;2023-09-30T03:57:11;13.20;99.90
16929;DHT22;8581;47.334;11.190;2023-09-30T03:59:42;13.20;99.90
16929;DHT22;8581;47.334;11.190;2023-09-30T04:02:14;13.20;99.90
16929;DHT22;8581;47.334;11.190;2023-09-30T04:04:46;13.20;99.90
16929;DHT22;8581;47.334;11.190;2023-09-30T04:07:17;13.10;99.90
16929;DHT22;8581;47.334;11.190;2023-09-30T04:09:49;13.10;99.90
16929;DHT22;8581;47.334;11.190;2023-09-30T04:12:21;13.10;99.90
16929;DHT22;8581;47.334;11.190;2023-09-30T04:14:52;13.00;99.90
16929;DHT22;8581;47.334;11.190;2023-09-30T04:17:24;13.10;99.90
16929;DHT22;8581;47.334;11.190;2023-09-30T04:19:55;13.00;99.90
16929;DHT22;8581;47.334;11.190;2023-09-30T04:22:27;13.20;99.90
16929;DHT22;8581;47.334;11.190;2023-09-30T04:24:58;13.20;99.90
16929;DHT22;8581;47.334;11.190;2023-09-30T04:27:30;13.10;99.90
16929;DHT22;8581;47.334;11.190;2023-09-30T04:30:02;13.10;99.90
16929;DHT22;8581;47.334;11.190;2023-09-30T04:32:35;13.00;99.90
16929;DHT22;8581;47.334;11.190;2023-09-30T04:35:06;13.10;99.90
16929;DHT22;8581;47.334;11.190;2023-09-30T04:37:38;13.10;99.90
16929;DHT22;8581;47.334;11.190;2023-09-30T04:40:10;13.10;99.90
16929;DHT22;8581;47.334;11.190;2023-09-30T04:42:42;13.20;99.90
16929;DHT22;8581;47.334;11.190;2023-09-30T04:45:14;13.20;99.90
16929;DHT22;8581;47.334;11.190;2023-09-30T04:47:46;13.10;99.90
16929;DHT22;8581;47.334;11.190;2023-09-30T04:50:17;13.20;99.90
16929;DHT22;8581;47.334;11.190;2023-09-30T04:52:50;13.20;99.90
16929;DHT22;8581;47.334;11.190;2023-09-30T04:55:20;13.20;99.90
16929;DHT22;8581;47.334;11.190;2023-09-30T04:57:52;13.20;99.90
16929;DHT22;8581;47.334;11.190;2023-09-30T05:00:24;13.40;99.90
16929;DHT22;8581;47.334;11.190;2023-09-30T05:02:56;13.50;99.90
16929;DHT22;8581;47.334;11.190;2023-09-30T05:05:28;13.80;99.90
16929;DHT22;8581;47.334;11.190;2023-09-30T05:07:59;13.70;99.90
16929;DHT22;8581;47.334;11.190;2023-09-30T05:10:31;13.70;99.90
16929;DHT22;8581;47.334;11.190;2023-09-30T05:13:03;13.50;99.90
16929;DHT22;8581;47.334;11.190;2023-09-30T05:15:34;13.60;99.90
16929;DHT22;8581;47.334;11.190;2023-09-30T05:18:06;13.60;99.90
16929;DHT22;8581;47.334;11.190;2023-09-30T05:20:38;13.60;99.90
16929;DHT22;8581;47.334;11.190;2023-09-30T05:23:09;13.50;99.90
16929;DHT22;8581;47.334;11.190;2023-09-30T05:25:41;13.50;99.90
16929;DHT22;8581;47.334;11.190;2023-09-30T05:28:12;13.50;99.90
16929;DHT22;8581;47.334;11.190;2023-09-30T05:30:44;13.70;99.90
16929;DHT22;8581;47.334;11.190;2023-09-30T05:33:16;13.70;99.90
16929;DHT22;8581;47.334;11.190;2023-09-30T05:35:47;13.80;99.90
16929;DHT22;8581;47.334;11.190;2023-09-30T05:38:19;13.70;99.90
16929;DHT22;8581;47.334;11.190;2023-09-30T05:40:51;13.70;99.90
16929;DHT22;8581;47.334;11.190;2023-09-30T05:43:22;13.50;99.90
16929;DHT22;8581;47.334;11.190;2023-09-30T05:45:54;13.60;99.90
16929;DHT22;8581;47.334;11.190;2023-09-30T05:48:25;13.50;99.90
16929;DHT22;8581;47.334;11.190;2023-09-30T05:50:57;13.50;99.90
16929;DHT22;8581;47.334;11.190;2023-09-30T05:53:28;13.50;99.90
16929;DHT22;8581;47.334;11.190;2023-09-30T05:56:00;13.40;99.90
16929;DHT22;8581;47.334;11.190;2023-09-30T05:58:32;13.60;99.90
16929;DHT22;8581;47.334;11.190;2023-09-30T06:01:09;13.80;99.90
16929;DHT22;8581;47.334;11.190;2023-09-30T06:03:43;13.70;99.90
16929;DHT22;8581;47.334;11.190;2023-09-30T06:06:15;14.00;99.90
16929;DHT22;8581;47.334;11.190;2023-09-30T06:08:47;14.10;99.90
16929;DHT22;8581;47.334;11.190;2023-09-30T06:11:19;13.80;99.90
16929;DHT22;8581;47.334;11.190;2023-09-30T06:13:51;13.50;99.90
16929;DHT22;8581;47.334;11.190;2023-09-30T06:16:24;13.60;99.90
16929;DHT22;8581;47.334;11.190;2023-09-30T06:18:55;13.80;99.90
16929;DHT22;8581;47.334;11.190;2023-09-30T06:21:27;14.00;99.90
16929;DHT22;8581;47.334;11.190;2023-09-30T06:23:59;14.10;99.90
16929;DHT22;8581;47.334;11.190;2023-09-30T06:26:31;14.30;99.90
16929;DHT22;8581;47.334;11.190;2023-09-30T06:29:02;14.40;99.90
16929;DHT22;8581;47.334;11.190;2023-09-30T06:31:34;14.50;99.90
16929;DHT22;8581;47.334;11.190;2023-09-30T06:34:05;14.60;99.90
16929;DHT22;8581;47.334;11.190;2023-09-30T06:36:37;14.60;99.90
16929;DHT22;8581;47.334;11.190;2023-09-30T06:39:09;14.60;99.90
16929;DHT22;8581;47.334;11.190;2023-09-30T06:41:40;14.40;99.90
16929;DHT22;8581;47.334;11.190;2023-09-30T06:44:12;14.50;99.90
16929;DHT22;8581;47.334;11.190;2023-09-30T06:46:43;14.40;99.90
16929;DHT22;8581;47.334;11.190;2023-09-30T06:49:15;14.40;99.90
16929;DHT22;8581;47.334;11.190;2023-09-30T06:51:47;14.40;99.90
16929;DHT22;8581;47.334;11.190;2023-09-30T06:54:18;14.60;99.90
16929;DHT22;8581;47.334;11.190;2023-09-30T06:56:50;14.40;99.90
16929;DHT22;8581;47.334;11.190;2023-09-30T06:59:22;14.50;99.90
16929;DHT22;8581;47.334;11.190;2023-09-30T07:01:53;14.20;99.90
16929;DHT22;8581;47.334;11.190;2023-09-30T07:04:25;14.40;99.90
16929;DHT22;8581;47.334;11.190;2023-09-30T07:06:56;14.50;99.90
16929;DHT22;8581;47.334;11.190;2023-09-30T07:09:28;14.60;99.90
16929;DHT22;8581;47.334;11.190;2023-09-30T07:12:00;14.70;99.90
16929;DHT22;8581;47.334;11.190;2023-09-30T07:14:32;15.00;99.90
16929;DHT22;8581;47.334;11.190;2023-09-30T07:17:03;15.10;99.90
16929;DHT22;8581;47.334;11.190;2023-09-30T07:19:34;14.90;99.90
16929;DHT22;8581;47.334;11.190;2023-09-30T07:22:06;14.80;99.90
16929;DHT22;8581;47.334;11.190;2023-09-30T07:24:38;14.90;99.90
16929;DHT22;8581;47.334;11.190;2023-09-30T07:27:09;15.10;99.90
16929;DHT22;8581;47.334;11.190;2023-09-30T07:29:41;15.20;99.90
16929;DHT22;8581;47.334;11.190;2023-09-30T07:32:12;15.30;99.90
16929;DHT22;8581;47.334;11.190;2023-09-30T07:34:44;15.20;99.90
16929;DHT22;8581;47.334;11.190;2023-09-30T07:37:16;15.00;99.90
16929;DHT22;8581;47.334;11.190;2023-09-30T07:39:47;15.10;99.90
16929;DHT22;8581;47.334;11.190;2023-09-30T07:42:19;15.10;99.90
16929;DHT22;8581;47.334;11.190;2023-09-30T07:44:50;14.90;99.90
16929;DHT22;8581;47.334;11.190;2023-09-30T07:47:22;14.60;99.90
16929;DHT22;8581;47.334;11.190;2023-09-30T07:49:54;14.60;99.90
16929;DHT22;8581;47.334;11.190;2023-09-30T07:52:25;14.40;99.90
16929;DHT22;8581;47.334;11.190;2023-09-30T07:54:57;14.30;99.90
16929;DHT22;8581;47.334;11.190;2023-09-30T07:57:28;14.40;99.90
16929;DHT22;8581;47.334;11.190;2023-09-30T08:00:00;14.40;99.90
16929;DHT22;8581;47.334;11.190;2023-09-30T08:02:31;14.20;99.90
16929;DHT22;8581;47.334;11.190;2023-09-30T08:05:05;14.00;99.90
16929;DHT22;8581;47.334;11.190;2023-09-30T08:07:36;14.10;99.90
16929;DHT22;8581;47.334;11.190;2023-09-30T08:10:08;14.20;99.90
16929;DHT22;8581;47.334;11.190;2023-09-30T08:12:40;14.40;99.90
16929;DHT22;8581;47.334;11.190;2023-09-30T08:15:11;14.50;99.90
16929;DHT22;8581;47.334;11.190;2023-09-30T08:17:43;14.50;99.90
16929;DHT22;8581;47.334;11.190;2023-09-30T08:20:15;14.40;99.90
16929;DHT22;8581;47.334;11.190;2023-09-30T08:22:46;14.50;99.90
16929;DHT22;8581;47.334;11.190;2023-09-30T08:25:18;14.70;99.90
16929;DHT22;8581;47.334;11.190;2023-09-30T08:27:49;15.20;99.90
16929;DHT22;8581;47.334;11.190;2023-09-30T08:30:21;15.40;99.90
16929;DHT22;8581;47.334;11.190;2023-09-30T08:32:53;15.60;99.90
16929;DHT22;8581;47.334;11.190;2023-09-30T08:35:24;15.60;99.90
16929;DHT22;8581;47.334;11.190;2023-09-30T08:37:58;15.60;99.90
16929;DHT22;8581;47.334;11.190;2023-09-30T08:40:29;15.50;99.90
16929;DHT22;8581;47.334;11.190;2023-09-30T08:43:01;15.60;99.90
16929;DHT22;8581;47.334;11.190;2023-09-30T08:45:33;15.80;99.90
16929;DHT22;8581;47.334;11.190;2023-09-30T08:48:05;16.00;99.90
16929;DHT22;8581;47.334;11.190;2023-09-30T08:50:37;15.90;99.90
16929;DHT22;8581;47.334;11.190;2023-09-30T08:53:09;16.20;99.90
16929;DHT22;8581;47.334;11.190;2023-09-30T08:55:40;16.70;99.90
16929;DHT22;8581;47.334;11.190;2023-09-30T08:58:12;16.90;99.90
16929;DHT22;8581;47.334;11.190;2023-09-30T09:00:45;17.00;99.90
16929;DHT22;8581;47.334;11.190;2023-09-30T09:03:18;17.50;99.90
16929;DHT22;8581;47.334;11.190;2023-09-30T09:05:54;17.40;99.90
16929;DHT22;8581;47.334;11.190;2023-09-30T09:08:26;17.70;99.90
16929;DHT22;8581;47.334;11.190;2023-09-30T09:10:59;18.20;99.90
16929;DHT22;8581;47.334;11.190;2023-09-30T09:13:29;18.20;99.90
16929;DHT22;8581;47.334;11.190;2023-09-30T09:16:06;17.90;99.90
16929;DHT22;8581;47.334;11.190;2023-09-30T09:18:37;18.50;99.90
16929;DHT22;8581;47.334;11.190;2023-09-30T09:21:19;19.40;99.90
16929;DHT22;8581;47.334;11.190;2023-09-30T09:23:50;19.60;99.90
16929;DHT22;8581;47.334;11.190;2023-09-30T09:26:26;19.80;99.90
16929;DHT22;8581;47.334;11.190;2023-09-30T09:28:58;19.90;99.90
16929;DHT22;8581;47.334;11.190;2023-09-30T09:31:30;20.10;99.90
16929;DHT22;8581;47.334;11.190;2023-09-30T09:34:02;20.50;99.90
16929;DHT22;8581;47.334;11.190;2023-09-30T09:36:39;20.20;99.90
16929;DHT22;8581;47.334;11.190;2023-09-30T09:39:10;20.30;99.90
16929;DHT22;8581;47.334;11.190;2023-09-30T09:41:50;21.00;99.90
16929;DHT22;8581;47.334;11.190;2023-09-30T09:44:21;21.60;99.90
16929;DHT22;8581;47.334;11.190;2023-09-30T09:46:52;22.10;99.90
16929;DHT22;8581;47.334;11.190;2023-09-30T09:49:24;22.40;99.90
16929;DHT22;8581;47.334;11.190;2023-09-30T09:51:58;22.80;99.90
16929;DHT22;8581;47.334;11.190;2023-09-30T09:54:29;23.30;99.90
16929;DHT22;8581;47.334;11.190;2023-09-30T09:57:01;23.40;99.90
16929;DHT22;8581;47.334;11.190;2023-09-30T09:59:33;23.70;99.90
16929;DHT22;8581;47.334;11.190;2023-09-30T10:02:09;23.30;99.90
16929;DHT22;8581;47.334;11.190;2023-09-30T10:04:38;23.10;99.90
16929;DHT22;8581;47.334;11.190;2023-09-30T10:07:15;23.40;99.90
16929;DHT22;8581;47.334;11.190;2023-09-30T10:09:46;23.70;99.90
16929;DHT22;8581;47.334;11.190;2023-09-30T10:12:17;23.90;99.90
16929;DHT22;8581;47.334;11.190;2023-09-30T10:14:48;23.60;99.90
16929;DHT22;8581;47.334;11.190;2023-09-30T10:17:19;24.20;99.90
16929;DHT22;8581;47.334;11.190;2023-09-30T10:20:05;23.50;99.90
16929;DHT22;8581;47.334;11.190;2023-09-30T10:22:38;24.50;99.90
16929;DHT22;8581;47.334;11.190;2023-09-30T10:25:33;23.80;99.90
16929;DHT22;8581;47.334;11.190;2023-09-30T10:28:31;24.40;99.90
16929;DHT22;8581;47.334;11.190;2023-09-30T10:30:35;24.10;99.90
16929;DHT22;8581;47.334;11.190;2023-09-30T10:33:08;24.60;99.90
16929;DHT22;8581;47.334;11.190;2023-09-30T10:35:43;24.90;99.90
16929;DHT22;8581;47.334;11.190;2023-09-30T10:38:37;26.20;99.90
16929;DHT22;8581;47.334;11.190;2023-09-30T10:41:09;26.60;99.90
16929;DHT22;8581;47.334;11.190;2023-09-30T10:43:40;26.70;99.90
16929;DHT22;8581;47.334;11.190;2023-09-30T10:48:55;27.30;99.90
16929;DHT22;8581;47.334;11.190;2023-09-30T10:51:27;27.10;99.90
16929;DHT22;8581;47.334;11.190;2023-09-30T10:53:58;27.30;99.90
16929;DHT22;8581;47.334;11.190;2023-09-30T10:56:32;27.30;99.90
16929;DHT22;8581;47.334;11.190;2023-09-30T10:59:02;26.30;99.90
16929;DHT22;8581;47.334;11.190;2023-09-30T11:01:34;26.00;99.90
16929;DHT22;8581;47.334;11.190;2023-09-30T11:04:06;26.40;99.90
16929;DHT22;8581;47.334;11.190;2023-09-30T11:06:41;26.60;99.90
16929;DHT22;8581;47.334;11.190;2023-09-30T11:09:16;28.00;99.90
16929;DHT22;8581;47.334;11.190;2023-09-30T11:11:48;28.10;99.90
16929;DHT22;8581;47.334;11.190;2023-09-30T11:14:22;29.50;99.90
16929;DHT22;8581;47.334;11.190;2023-09-30T11:16:55;29.10;99.90
16929;DHT22;8581;47.334;11.190;2023-09-30T11:19:35;30.80;99.90
16929;DHT22;8581;47.334;11.190;2023-09-30T11:22:06;30.30;98.10
16929;DHT22;8581;47.334;11.190;2023-09-30T11:24:38;31.20;97.50
16929;DHT22;8581;47.334;11.190;2023-09-30T11:27:10;31.40;97.20
16929;DHT22;8581;47.334;11.190;2023-09-30T11:29:49;32.10;95.60
16929;DHT22;8581;47.334;11.190;2023-09-30T11:32:23;32.80;94.90
16929;DHT22;8581;47.334;11.190;2023-09-30T11:34:54;31.40;94.70
16929;DHT22;8581;47.334;11.190;2023-09-30T11:37:31;31.40;94.00
16929;DHT22;8581;47.334;11.190;2023-09-30T11:40:11;31.70;94.50
16929;DHT22;8581;47.334;11.190;2023-09-30T11:42:42;32.30;93.90
16929;DHT22;8581;47.334;11.190;2023-09-30T11:45:20;32.80;92.10
16929;DHT22;8581;47.334;11.190;2023-09-30T11:47:55;31.20;94.10
16929;DHT22;8581;47.334;11.190;2023-09-30T11:50:26;30.40;94.30
16929;DHT22;8581;47.334;11.190;2023-09-30T11:52:58;31.00;93.80
16929;DHT22;8581;47.334;11.190;2023-09-30T11:55:29;31.60;92.50
16929;DHT22;8581;47.334;11.190;2023-09-30T11:58:01;31.90;92.50
16929;DHT22;8581;47.334;11.190;2023-09-30T12:00:33;31.70;91.80
16929;DHT22;8581;47.334;11.190;2023-09-30T12:03:04;32.30;91.10
16929;DHT22;8581;47.334;11.190;2023-09-30T12:05:36;32.20;90.80
16929;DHT22;8581;47.334;11.190;2023-09-30T12:08:07;32.00;90.60
16929;DHT22;8581;47.334;11.190;2023-09-30T12:10:39;32.50;90.50
16929;DHT22;8581;47.334;11.190;2023-09-30T12:13:11;31.30;90.20
16929;DHT22;8581;47.334;11.190;2023-09-30T12:15:42;31.50;91.60
16929;DHT22;8581;47.334;11.190;2023-09-30T12:18:14;31.70;90.70
16929;DHT22;8581;47.334;11.190;2023-09-30T12:20:45;32.60;89.10
16929;DHT22;8581;47.334;11.190;2023-09-30T12:23:17;32.70;88.50
16929;DHT22;8581;47.334;11.190;2023-09-30T12:25:49;32.90;88.10
16929;DHT22;8581;47.334;11.190;2023-09-30T12:28:20;32.40;88.70
16929;DHT22;8581;47.334;11.190;2023-09-30T12:30:52;33.00;87.70
16929;DHT22;8581;47.334;11.190;2023-09-30T12:33:23;33.30;86.90
16929;DHT22;8581;47.334;11.190;2023-09-30T12:35:55;33.50;86.00
16929;DHT22;8581;47.334;11.190;2023-09-30T12:38:27;32.60;87.70
16929;DHT22;8581;47.334;11.190;2023-09-30T12:40:58;32.30;88.40
16929;DHT22;8581;47.334;11.190;2023-09-30T12:43:30;32.30;87.60
16929;DHT22;8581;47.334;11.190;2023-09-30T12:46:01;31.90;89.00
16929;DHT22;8581;47.334;11.190;2023-09-30T12:48:33;32.60;86.70
16929;DHT22;8581;47.334;11.190;2023-09-30T12:51:05;33.40;86.00
16929;DHT22;8581;47.334;11.190;2023-09-30T12:53:36;33.00;86.00
16929;DHT22;8581;47.334;11.190;2023-09-30T12:56:08;32.80;85.30
16929;DHT22;8581;47.334;11.190;2023-09-30T12:58:40;33.20;85.50
16929;DHT22;8581;47.334;11.190;2023-09-30T13:01:11;33.40;84.90
16929;DHT22;8581;47.334;11.190;2023-09-30T13:03:43;34.20;83.20
16929;DHT22;8581;47.334;11.190;2023-09-30T13:06:14;33.40;84.50
16929;DHT22;8581;47.334;11.190;2023-09-30T13:08:48;33.10;85.40
16929;DHT22;8581;47.334;11.190;2023-09-30T13:11:20;32.40;85.60
16929;DHT22;8581;47.334;11.190;2023-09-30T13:13:52;32.60;86.60
16929;DHT22;8581;47.334;11.190;2023-09-30T13:16:23;31.60;87.00
16929;DHT22;8581;47.334;11.190;2023-09-30T13:18:55;32.00;85.90
16929;DHT22;8581;47.334;11.190;2023-09-30T13:21:26;32.40;85.60
16929;DHT22;8581;47.334;11.190;2023-09-30T13:23:58;32.30;85.50
16929;DHT22;8581;47.334;11.190;2023-09-30T13:26:30;32.00;85.20
16929;DHT22;8581;47.334;11.190;2023-09-30T13:29:01;31.90;85.40
16929;DHT22;8581;47.334;11.190;2023-09-30T13:31:33;31.70;86.90
16929;DHT22;8581;47.334;11.190;2023-09-30T13:34:05;31.40;87.00
16929;DHT22;8581;47.334;11.190;2023-09-30T13:36:36;31.40;86.30
16929;DHT22;8581;47.334;11.190;2023-09-30T13:39:08;31.90;85.80
16929;DHT22;8581;47.334;11.190;2023-09-30T13:41:39;31.80;85.90
16929;DHT22;8581;47.334;11.190;2023-09-30T13:44:11;31.30;85.50
16929;DHT22;8581;47.334;11.190;2023-09-30T13:46:42;30.50;88.20
16929;DHT22;8581;47.334;11.190;2023-09-30T13:49:14;30.40;87.70
16929;DHT22;8581;47.334;11.190;2023-09-30T13:51:46;29.70;88.90
16929;DHT22;8581;47.334;11.190;2023-09-30T13:54:17;30.00;89.50
16929;DHT22;8581;47.334;11.190;2023-09-30T13:56:49;30.00;89.40
16929;DHT22;8581;47.334;11.190;2023-09-30T13:59:20;29.90;90.00
16929;DHT22;8581;47.334;11.190;2023-09-30T14:01:52;30.50;89.00
16929;DHT22;8581;47.334;11.190;2023-09-30T14:04:24;30.70;87.80
16929;DHT22;8581;47.334;11.190;2023-09-30T14:06:55;30.30;88.00
16929;DHT22;8581;47.334;11.190;2023-09-30T14:09:27;30.40;88.10
16929;DHT22;8581;47.334;11.190;2023-09-30T14:11:58;31.00;86.60
16929;DHT22;8581;47.334;11.190;2023-09-30T14:14:32;30.20;87.70
16929;DHT22;8581;47.334;11.190;2023-09-30T14:17:02;30.30;88.10
16929;DHT22;8581;47.334;11.190;2023-09-30T14:19:37;30.00;87.70
16929;DHT22;8581;47.334;11.190;2023-09-30T14:22:08;29.70;90.00
16929;DHT22;8581;47.334;11.190;2023-09-30T14:24:40;29.20;89.50
16929;DHT22;8581;47.334;11.190;2023-09-30T14:27:12;28.30;90.90
16929;DHT22;8581;47.334;11.190;2023-09-30T14:29:43;27.90;91.10
16929;DHT22;8581;47.334;11.190;2023-09-30T14:32:15;28.40;90.90
16929;DHT22;8581;47.334;11.190;2023-09-30T14:34:46;28.00;91.20
16929;DHT22;8581;47.334;11.190;2023-09-30T14:37:18;27.70;91.40
16929;DHT22;8581;47.334;11.190;2023-09-30T14:39:50;27.50;91.70
16929;DHT22;8581;47.334;11.190;2023-09-30T14:42:21;27.80;91.10
16929;DHT22;8581;47.334;11.190;2023-09-30T14:44:53;27.00;92.20
16929;DHT22;8581;47.334;11.190;2023-09-30T14:47:24;27.20;92.70
16929;DHT22;8581;47.334;11.190;2023-09-30T14:49:56;28.10;91.80
16929;DHT22;8581;47.334;11.190;2023-09-30T14:52:28;28.40;91.00
16929;DHT22;8581;47.334;11.190;2023-09-30T14:54:59;28.30;91.10
16929;DHT22;8581;47.334;11.190;2023-09-30T14:57:31;27.20;92.30
16929;DHT22;8581;47.334;11.190;2023-09-30T15:00:03;27.40;92.40
16929;DHT22;8581;47.334;11.190;2023-09-30T15:02:35;27.60;92.10
16929;DHT22;8581;47.334;11.190;2023-09-30T15:05:06;28.10;91.30
16929;DHT22;8581;47.334;11.190;2023-09-30T15:07:38;27.60;91.90
16929;DHT22;8581;47.334;11.190;2023-09-30T15:10:10;28.30;91.30
16929;DHT22;8581;47.334;11.190;2023-09-30T15:12:41;28.30;91.00
16929;DHT22;8581;47.334;11.190;2023-09-30T15:15:13;28.10;90.90
16929;DHT22;8581;47.334;11.190;2023-09-30T15:17:44;26.90;91.90
16929;DHT22;8581;47.334;11.190;2023-09-30T15:20:16;26.10;92.80
16929;DHT22;8581;47.334;11.190;2023-09-30T15:22:48;25.40;94.00
16929;DHT22;8581;47.334;11.190;2023-09-30T15:25:19;24.60;94.70
16929;DHT22;8581;47.334;11.190;2023-09-30T15:27:51;24.40;95.30
16929;DHT22;8581;47.334;11.190;2023-09-30T15:30:23;23.60;96.60
16929;DHT22;8581;47.334;11.190;2023-09-30T15:32:55;22.30;98.80
16929;DHT22;8581;47.334;11.190;2023-09-30T15:35:27;21.30;99.90
16929;DHT22;8581;47.334;11.190;2023-09-30T15:37:58;20.60;99.90
16929;DHT22;8581;47.334;11.190;2023-09-30T15:40:30;19.70;99.90
16929;DHT22;8581;47.334;11.190;2023-09-30T15:43:01;19.20;99.90
16929;DHT22;8581;47.334;11.190;2023-09-30T15:45:33;18.50;99.90
16929;DHT22;8581;47.334;11.190;2023-09-30T15:48:05;18.20;99.90
16929;DHT22;8581;47.334;11.190;2023-09-30T15:50:37;18.10;99.90
16929;DHT22;8581;47.334;11.190;2023-09-30T15:53:08;18.00;99.90
16929;DHT22;8581;47.334;11.190;2023-09-30T15:55:40;17.80;99.90
16929;DHT22;8581;47.334;11.190;2023-09-30T15:58:12;17.60;99.90
16929;DHT22;8581;47.334;11.190;2023-09-30T16:00:43;17.50;99.90
16929;DHT22;8581;47.334;11.190;2023-09-30T16:03:15;17.30;99.90